createdAt,value
2022-10-25T00:00:39.959Z,91.69
2022-10-25T00:03:11.755Z,91.51
2022-10-25T00:05:40.801Z,91.08
2022-10-25T00:08:07.901Z,91.14
2022-10-25T00:10:35.498Z,91.59
2022-10-25T00:13:02.886Z,91.43
2022-10-25T00:15:29.337Z,91.90
2022-10-25T00:17:55.825Z,91.90
2022-10-25T00:20:22.525Z,91.89
2022-10-25T00:22:49.398Z,90.77
2022-10-25T00:25:16.179Z,90.47
2022-10-25T00:27:42.787Z,90.49
2022-10-25T00:30:10.045Z,90.14
2022-10-25T00:32:36.874Z,90.32
2022-10-25T00:35:04.103Z,89.99
2022-10-25T00:37:30.668Z,89.21
2022-10-25T00:39:57.190Z,89.73
2022-10-25T00:42:26.415Z,90.25
2022-10-25T00:45:03.835Z,90.65
2022-10-25T00:47:40.013Z,89.90
2022-10-25T00:50:16.952Z,89.94
2022-10-25T00:52:47.185Z,89.89
2022-10-25T00:55:16.613Z,90.20
2022-10-25T00:57:49.965Z,90.13
2022-10-25T01:00:16.862Z,90.28
2022-10-25T01:02:43.788Z,89.17
2022-10-25T01:05:10.959Z,89.79
2022-10-25T01:07:37.467Z,89.80
2022-10-25T01:10:04.710Z,89.75
2022-10-25T01:12:31.178Z,89.44
2022-10-25T01:14:57.886Z,89.30
2022-10-25T01:17:53.928Z,88.94
2022-10-25T01:20:39.415Z,89.08
2022-10-25T01:23:32.381Z,89.15
2022-10-25T01:26:04.982Z,89.56
2022-10-25T01:28:51.669Z,89.73
2022-10-25T01:31:27.250Z,90.58
2022-10-25T01:34:05.587Z,90.69
2022-10-25T01:37:03.544Z,90.55
2022-10-25T01:39:38.218Z,91.39
2022-10-25T01:42:11.706Z,92.11
2022-10-25T01:44:59.649Z,92.83
2022-10-25T01:47:36.533Z,93.14
2022-10-25T01:50:07.476Z,93.10
2022-10-25T01:52:34.159Z,93.43
2022-10-25T01:55:02.003Z,94.60
2022-10-25T01:57:53.410Z,94.67
2022-10-25T02:00:23.206Z,94.74
2022-10-25T02:03:08.386Z,95.13
2022-10-25T02:06:15.576Z,95.17
2022-10-25T02:09:08.607Z,94.84
2022-10-25T02:11:36.566Z,95.52
2022-10-25T02:14:02.881Z,96.16
2022-10-25T02:16:38.676Z,96.58
2022-10-25T02:19:08.817Z,97.99
2022-10-25T02:21:37.569Z,97.78
2022-10-25T02:24:10.484Z,98.86
2022-10-25T02:26:38.840Z,98.93
2022-10-25T02:29:07.057Z,99.74
2022-10-25T02:31:36.378Z,100.00
2022-10-25T02:34:03.713Z,100.00
2022-10-25T02:36:30.283Z,100.00
2022-10-25T02:38:58.100Z,100.00
2022-10-25T02:41:24.561Z,100.00
2022-10-25T02:43:51.518Z,100.00
2022-10-25T02:46:20.627Z,100.00
2022-10-25T02:48:47.951Z,100.00
2022-10-25T02:51:15.377Z,100.00
2022-10-25T02:53:42.130Z,100.00
2022-10-25T02:56:14.205Z,100.00
2022-10-25T02:58:42.232Z,100.00
2022-10-25T03:01:09.993Z,100.00
2022-10-25T03:03:36.848Z,100.00
2022-10-25T03:06:04.348Z,100.00
2022-10-25T03:08:31.193Z,100.00
2022-10-25T03:10:57.643Z,100.00
2022-10-25T03:13:24.155Z,100.00
2022-10-25T03:15:50.816Z,100.00
2022-10-25T03:18:18.010Z,100.00
2022-10-25T03:20:45.009Z,100.00
2022-10-25T03:23:12.105Z,100.00
2022-10-25T03:25:39.125Z,100.00
2022-10-25T03:28:06.140Z,100.00
2022-10-25T03:30:33.403Z,100.00
2022-10-25T03:32:59.882Z,100.00
2022-10-25T03:35:27.122Z,100.00
2022-10-25T03:37:53.858Z,100.00
2022-10-25T03:40:21.159Z,100.00
2022-10-25T03:42:47.609Z,100.00
2022-10-25T03:45:14.070Z,100.00
2022-10-25T03:47:40.558Z,100.00
2022-10-25T03:50:08.178Z,100.00
2022-10-25T03:52:35.510Z,100.00
2022-10-25T03:55:02.378Z,100.00
2022-10-25T03:57:28.888Z,100.00
2022-10-25T03:59:55.609Z,100.00
2022-10-25T04:02:22.085Z,100.00
2022-10-25T04:04:48.534Z,100.00
2022-10-25T04:07:15.287Z,100.00
2022-10-25T04:09:42.002Z,100.00
2022-10-25T04:12:08.777Z,100.00
2022-10-25T04:14:35.498Z,100.00
2022-10-25T04:17:02.028Z,100.00
2022-10-25T04:19:28.611Z,100.00
2022-10-25T04:21:55.068Z,100.00
2022-10-25T04:24:22.699Z,100.00
2022-10-25T04:26:49.317Z,100.00
2022-10-25T04:29:17.326Z,100.00
2022-10-25T04:31:44.090Z,100.00
2022-10-25T04:34:11.157Z,100.00
2022-10-25T04:36:39.018Z,100.00
2022-10-25T04:39:05.929Z,100.00
2022-10-25T04:41:32.350Z,100.00
2022-10-25T04:43:58.866Z,100.00
2022-10-25T04:46:25.363Z,100.00
2022-10-25T04:48:51.978Z,100.00
2022-10-25T04:51:19.059Z,100.00
2022-10-25T04:53:45.630Z,100.00
2022-10-25T04:56:14.332Z,100.00
2022-10-25T04:58:41.351Z,100.00
2022-10-25T05:01:11.071Z,100.00
2022-10-25T05:03:38.185Z,99.98
2022-10-25T05:06:12.880Z,99.79
2022-10-25T05:08:41.653Z,99.25
2022-10-25T05:11:09.845Z,99.57
2022-10-25T05:13:37.765Z,99.72
2022-10-25T05:16:04.759Z,99.73
2022-10-25T05:18:32.513Z,98.97
2022-10-25T05:21:01.530Z,98.82
2022-10-25T05:23:28.553Z,99.12
2022-10-25T05:26:12.606Z,98.70
2022-10-25T05:28:40.481Z,99.23
2022-10-25T05:31:13.599Z,98.53
2022-10-25T05:33:40.298Z,98.46
2022-10-25T05:36:07.256Z,99.05
2022-10-25T05:38:36.946Z,98.82
2022-10-25T05:41:05.135Z,99.20
2022-10-25T05:43:31.760Z,99.55
2022-10-25T05:46:11.600Z,99.61
2022-10-25T05:48:38.665Z,99.82
2022-10-25T05:51:32.915Z,99.61
2022-10-25T05:54:02.647Z,100.00
2022-10-25T05:56:30.931Z,99.93
2022-10-25T05:58:57.412Z,99.79
2022-10-25T06:01:26.574Z,100.00
2022-10-25T06:03:54.891Z,100.00
2022-10-25T06:06:22.735Z,100.00
2022-10-25T06:08:49.638Z,100.00
2022-10-25T06:11:19.497Z,100.00
2022-10-25T06:13:46.759Z,100.00
2022-10-25T06:16:15.663Z,100.00
2022-10-25T06:18:43.011Z,100.00
2022-10-25T06:21:21.313Z,100.00
2022-10-25T06:23:48.689Z,100.00
2022-10-25T06:26:18.157Z,100.00
2022-10-25T06:28:44.635Z,100.00
2022-10-25T06:31:13.898Z,100.00
2022-10-25T06:33:41.279Z,99.65
2022-10-25T06:36:14.749Z,99.56
2022-10-25T06:38:41.737Z,99.45
2022-10-25T06:41:12.380Z,98.87
2022-10-25T06:43:39.301Z,99.38
2022-10-25T06:46:07.802Z,99.67
2022-10-25T06:48:34.656Z,100.00
2022-10-25T06:51:06.128Z,100.00
2022-10-25T06:53:32.934Z,100.00
2022-10-25T06:56:04.986Z,99.75
2022-10-25T06:58:34.120Z,99.60
2022-10-25T07:01:10.362Z,99.93
2022-10-25T07:03:37.795Z,100.00
2022-10-25T07:06:09.964Z,99.15
2022-10-25T07:08:39.286Z,99.25
2022-10-25T07:11:06.893Z,99.92
2022-10-25T07:13:34.463Z,99.13
2022-10-25T07:16:05.918Z,99.48
2022-10-25T07:18:33.990Z,100.00
2022-10-25T07:21:02.686Z,99.19
2022-10-25T07:23:29.726Z,98.78
2022-10-25T07:25:57.042Z,98.67
2022-10-25T07:28:24.131Z,98.69
2022-10-25T07:30:51.507Z,98.24
2022-10-25T07:33:19.833Z,96.61
2022-10-25T07:35:59.024Z,96.43
2022-10-25T07:38:35.149Z,96.91
2022-10-25T07:41:01.750Z,96.68
2022-10-25T07:43:29.248Z,96.46
2022-10-25T07:45:56.166Z,95.39
2022-10-25T07:48:23.230Z,95.80
2022-10-25T07:50:50.736Z,95.02
2022-10-25T07:53:17.200Z,94.70
2022-10-25T07:55:44.090Z,93.85
2022-10-25T07:58:12.227Z,93.46
2022-10-25T08:00:38.686Z,93.86
2022-10-25T08:03:05.384Z,94.20
2022-10-25T08:05:32.108Z,93.74
2022-10-25T08:07:58.533Z,93.25
2022-10-25T08:10:25.054Z,92.18
2022-10-25T08:12:51.860Z,91.92
2022-10-25T08:15:18.418Z,92.99
2022-10-25T08:17:45.143Z,91.11
2022-10-25T08:20:12.432Z,90.92
2022-10-25T08:22:39.027Z,90.32
2022-10-25T08:25:06.355Z,90.24
2022-10-25T08:27:32.856Z,90.15
2022-10-25T08:29:59.439Z,88.53
2022-10-25T08:32:25.953Z,88.43
2022-10-25T08:34:52.441Z,87.45
2022-10-25T08:37:18.864Z,87.60
2022-10-25T08:39:45.472Z,87.90
2022-10-25T08:42:23.411Z,87.33
2022-10-25T08:45:10.428Z,87.61
2022-10-25T08:47:43.892Z,87.47
2022-10-25T08:50:24.279Z,86.94
2022-10-25T08:52:59.093Z,86.94
2022-10-25T08:55:32.586Z,86.48
2022-10-25T08:58:00.279Z,86.22
2022-10-25T09:00:32.314Z,86.32
2022-10-25T09:03:00.437Z,85.42
2022-10-25T09:05:32.783Z,85.59
2022-10-25T09:08:35.463Z,85.11
2022-10-25T09:11:33.299Z,83.66
2022-10-25T09:14:21.018Z,83.26
2022-10-25T09:16:52.999Z,82.09
2022-10-25T09:19:44.336Z,82.10
2022-10-25T09:22:50.019Z,82.37
2022-10-25T09:25:34.220Z,81.89
2022-10-25T09:28:03.727Z,82.92
2022-10-25T09:30:37.500Z,81.73
2022-10-25T09:33:10.504Z,81.36
2022-10-25T09:35:48.715Z,80.17
2022-10-25T09:38:18.167Z,80.97
2022-10-25T09:40:49.193Z,78.97
2022-10-25T09:43:23.069Z,79.57
2022-10-25T09:45:54.886Z,80.16
2022-10-25T09:48:33.049Z,81.39
2022-10-25T09:51:13.056Z,81.82
2022-10-25T09:53:42.215Z,79.68
2022-10-25T09:56:09.177Z,80.12
2022-10-25T09:58:40.736Z,79.50
2022-10-25T10:01:13.424Z,79.43
2022-10-25T10:03:41.486Z,79.65
2022-10-25T10:06:23.905Z,79.43
2022-10-25T10:08:54.519Z,79.23
2022-10-25T10:11:21.265Z,78.35
2022-10-25T10:13:55.162Z,78.34
2022-10-25T10:16:21.815Z,77.17
2022-10-25T10:18:48.667Z,77.02
2022-10-25T10:21:20.615Z,75.40
2022-10-25T10:23:54.223Z,75.92
2022-10-25T10:26:30.319Z,76.08
2022-10-25T10:29:20.989Z,75.24
2022-10-25T10:31:56.480Z,76.19
2022-10-25T10:34:38.468Z,76.07
2022-10-25T10:37:16.779Z,75.19
2022-10-25T10:39:58.589Z,74.69
2022-10-25T10:42:37.386Z,74.07
2022-10-25T10:45:13.236Z,74.15
2022-10-25T10:47:56.943Z,74.56
2022-10-25T10:50:28.725Z,75.39
2022-10-25T10:53:00.597Z,75.80
2022-10-25T10:55:30.552Z,76.69
2022-10-25T10:58:02.621Z,76.77
2022-10-25T11:00:31.278Z,76.84
2022-10-25T11:02:58.279Z,76.58
2022-10-25T11:05:27.778Z,75.94
2022-10-25T11:08:00.799Z,76.14
2022-10-25T11:10:33.807Z,75.79
2022-10-25T11:13:16.915Z,75.89
2022-10-25T11:16:28.570Z,76.88
2022-10-25T11:19:04.314Z,75.46
2022-10-25T11:21:43.007Z,75.09
2022-10-25T11:24:52.931Z,75.84
2022-10-25T11:27:45.288Z,76.11
2022-10-25T11:30:22.910Z,76.57
2022-10-25T11:33:07.423Z,77.39
2022-10-25T11:35:43.316Z,77.31
2022-10-25T11:38:13.005Z,76.97
2022-10-25T11:40:46.631Z,77.48
2022-10-25T11:43:45.371Z,77.55
2022-10-25T11:46:20.691Z,76.19
2022-10-25T11:49:02.696Z,75.49
2022-10-25T11:51:51.377Z,75.42
2022-10-25T11:54:32.202Z,75.77
2022-10-25T11:57:17.103Z,75.04
2022-10-25T12:00:10.969Z,75.33
2022-10-25T12:03:17.358Z,71.87
2022-10-25T12:06:06.080Z,69.86
2022-10-25T12:08:41.768Z,69.72
2022-10-25T12:11:17.968Z,69.51
2022-10-25T12:13:49.963Z,70.32
2022-10-25T12:16:19.791Z,69.37
2022-10-25T12:19:06.371Z,70.45
2022-10-25T12:21:47.821Z,70.36
2022-10-25T12:24:20.622Z,70.99
2022-10-25T12:26:50.054Z,71.21
2022-10-25T12:29:24.186Z,71.50
2022-10-25T12:31:56.794Z,71.57
2022-10-25T12:34:40.439Z,72.50
2022-10-25T12:37:18.764Z,72.55
2022-10-25T12:39:46.711Z,72.09
2022-10-25T12:42:23.530Z,71.38
2022-10-25T12:45:02.100Z,70.17
2022-10-25T12:47:34.429Z,69.55
2022-10-25T12:50:26.343Z,69.81
2022-10-25T12:53:04.711Z,69.89
2022-10-25T12:55:57.868Z,69.78
2022-10-25T12:58:42.761Z,69.41
2022-10-25T13:01:34.179Z,69.39
2022-10-25T13:04:34.729Z,69.04
2022-10-25T13:07:04.368Z,69.44
2022-10-25T13:09:33.867Z,69.84
2022-10-25T13:12:04.691Z,69.74
2022-10-25T13:14:43.224Z,69.68
2022-10-25T13:17:15.901Z,68.86
2022-10-25T13:19:54.505Z,68.36
2022-10-25T13:22:39.374Z,67.22
2022-10-25T13:25:12.187Z,68.10
2022-10-25T13:27:59.628Z,66.26
2022-10-25T13:30:32.368Z,63.97
2022-10-25T13:33:18.771Z,64.36
2022-10-25T13:35:46.093Z,65.43
2022-10-25T13:38:20.620Z,65.20
2022-10-25T13:41:06.577Z,65.01
2022-10-25T13:43:33.915Z,64.98
2022-10-25T13:46:00.765Z,65.63
2022-10-25T13:48:31.652Z,66.24
2022-10-25T13:51:13.141Z,66.27
2022-10-25T13:53:41.173Z,66.95
2022-10-25T13:56:17.169Z,67.91
2022-10-25T13:58:48.330Z,67.93
2022-10-25T14:01:18.888Z,67.04
2022-10-25T14:03:56.288Z,67.82
2022-10-25T14:06:31.768Z,68.95
2022-10-25T14:09:23.286Z,68.42
2022-10-25T14:12:11.935Z,66.26
2022-10-25T14:15:13.648Z,65.79
2022-10-25T14:17:45.178Z,65.24
2022-10-25T14:20:30.437Z,64.31
2022-10-25T14:23:03.892Z,65.43
2022-10-25T14:25:39.695Z,65.43
2022-10-25T14:28:07.942Z,65.93
2022-10-25T14:30:43.030Z,66.48
2022-10-25T14:33:28.410Z,67.06
2022-10-25T14:36:05.480Z,67.29
2022-10-25T14:38:35.179Z,66.62
2022-10-25T14:41:10.853Z,66.21
2022-10-25T14:43:38.758Z,66.78
2022-10-25T14:46:17.091Z,66.55
2022-10-25T14:48:49.166Z,66.74
2022-10-25T14:51:21.594Z,67.11
2022-10-25T14:53:56.201Z,67.80
2022-10-25T14:56:31.631Z,68.36
2022-10-25T14:58:59.675Z,68.43
2022-10-25T15:01:26.593Z,69.11
2022-10-25T15:03:56.640Z,69.05
2022-10-25T15:06:25.667Z,69.20
2022-10-25T15:09:14.878Z,68.88
2022-10-25T15:12:06.721Z,69.33
2022-10-25T15:14:33.960Z,70.34
2022-10-25T15:17:29.663Z,70.64
2022-10-25T15:20:14.464Z,70.76
2022-10-25T15:22:44.669Z,70.92
2022-10-25T15:25:39.157Z,71.47
2022-10-25T15:28:14.523Z,71.96
2022-10-25T15:30:50.268Z,72.43
2022-10-25T15:33:23.206Z,72.97
2022-10-25T15:35:52.323Z,73.28
2022-10-25T15:38:19.375Z,72.72
2022-10-25T15:40:47.140Z,72.98
2022-10-25T15:43:13.884Z,73.65
2022-10-25T15:45:41.082Z,73.81
2022-10-25T15:48:14.219Z,73.89
2022-10-25T15:50:47.201Z,74.31
2022-10-25T15:53:13.755Z,74.58
2022-10-25T15:55:40.551Z,75.07
2022-10-25T15:58:09.788Z,74.84
2022-10-25T16:00:38.805Z,75.46
2022-10-25T16:03:06.698Z,75.98
2022-10-25T16:05:35.971Z,76.64
2022-10-25T16:08:03.130Z,77.17
2022-10-25T16:10:30.579Z,77.66
2022-10-25T16:13:05.884Z,78.00
2022-10-25T16:15:32.731Z,78.36
2022-10-25T16:17:59.174Z,78.48
2022-10-25T16:20:28.337Z,79.17
2022-10-25T16:22:55.837Z,79.15
2022-10-25T16:25:25.913Z,79.49
2022-10-25T16:27:54.499Z,78.86
2022-10-25T16:30:23.436Z,79.54
2022-10-25T16:32:50.999Z,80.05
2022-10-25T16:35:24.202Z,80.35
2022-10-25T16:37:51.732Z,80.29
2022-10-25T16:40:19.729Z,80.45
2022-10-25T16:42:46.759Z,80.82
2022-10-25T16:45:18.966Z,81.27
2022-10-25T16:47:45.629Z,82.06
2022-10-25T16:50:12.166Z,82.20
2022-10-25T16:52:38.600Z,82.48
2022-10-25T16:55:05.583Z,82.76
2022-10-25T16:57:32.071Z,82.67
2022-10-25T16:59:58.558Z,83.24
2022-10-25T17:02:25.562Z,82.98
2022-10-25T17:04:53.591Z,83.25
2022-10-25T17:07:20.121Z,83.61
2022-10-25T17:09:46.606Z,84.07
2022-10-25T17:12:13.148Z,83.89
2022-10-25T17:14:39.723Z,84.65
2022-10-25T17:17:06.213Z,84.87
2022-10-25T17:19:32.760Z,85.14
2022-10-25T17:21:59.247Z,85.40
2022-10-25T17:24:25.734Z,85.17
2022-10-25T17:26:52.445Z,85.45
2022-10-25T17:29:19.029Z,85.73
2022-10-25T17:31:45.541Z,85.58
2022-10-25T17:34:12.626Z,85.85
2022-10-25T17:36:39.285Z,85.91
2022-10-25T17:39:10.253Z,85.35
2022-10-25T17:41:37.206Z,85.99
2022-10-25T17:44:03.927Z,86.05
2022-10-25T17:46:31.815Z,86.27
2022-10-25T17:49:03.545Z,86.13
2022-10-25T17:51:31.610Z,86.34
2022-10-25T17:53:58.189Z,86.58
2022-10-25T17:56:26.953Z,86.50
2022-10-25T17:58:54.565Z,86.90
2022-10-25T18:01:23.955Z,86.97
2022-10-25T18:03:51.370Z,86.62
2022-10-25T18:06:20.095Z,86.74
2022-10-25T18:08:51.371Z,86.93
2022-10-25T18:11:22.072Z,87.01
2022-10-25T18:13:50.497Z,87.45
2022-10-25T18:16:17.914Z,87.36
2022-10-25T18:18:44.588Z,87.25
2022-10-25T18:21:14.113Z,87.55
2022-10-25T18:23:42.126Z,87.51
2022-10-25T18:26:11.259Z,87.61
2022-10-25T18:28:38.130Z,87.75
2022-10-25T18:31:10.068Z,87.87
2022-10-25T18:33:38.541Z,88.16
2022-10-25T18:36:09.884Z,88.31
2022-10-25T18:38:36.498Z,88.56
2022-10-25T18:41:07.959Z,89.00
2022-10-25T18:43:35.008Z,89.06
2022-10-25T18:46:02.153Z,89.35
2022-10-25T18:48:29.280Z,89.14
2022-10-25T18:50:55.811Z,89.28
2022-10-25T18:53:22.691Z,89.81
2022-10-25T18:55:53.028Z,89.80
2022-10-25T18:58:19.644Z,89.32
2022-10-25T19:00:47.235Z,89.15
2022-10-25T19:03:15.726Z,89.17
2022-10-25T19:05:43.245Z,89.45
2022-10-25T19:08:11.676Z,89.59
2022-10-25T19:10:39.931Z,89.87
2022-10-25T19:13:07.966Z,90.19
2022-10-25T19:15:34.561Z,89.73
2022-10-25T19:18:01.113Z,90.17
2022-10-25T19:20:27.641Z,90.11
2022-10-25T19:22:58.338Z,90.29
2022-10-25T19:25:28.619Z,90.13
2022-10-25T19:27:55.694Z,90.67
2022-10-25T19:30:22.773Z,90.54
2022-10-25T19:32:49.293Z,90.92
2022-10-25T19:35:16.447Z,91.08
2022-10-25T19:37:43.387Z,91.03
2022-10-25T19:40:10.750Z,91.40
2022-10-25T19:42:37.773Z,91.00
2022-10-25T19:45:05.451Z,90.89
2022-10-25T19:47:34.140Z,91.20
2022-10-25T19:50:02.640Z,91.19
2022-10-25T19:52:29.135Z,91.54
2022-10-25T19:54:55.582Z,91.72
2022-10-25T19:57:22.011Z,91.75
2022-10-25T19:59:48.527Z,91.93
2022-10-25T20:02:15.181Z,92.16
2022-10-25T20:04:42.179Z,91.65
2022-10-25T20:07:08.649Z,92.38
2022-10-25T20:09:35.096Z,92.59
2022-10-25T20:12:02.553Z,92.90
2022-10-25T20:14:30.762Z,92.56
2022-10-25T20:16:57.251Z,93.18
2022-10-25T20:19:23.690Z,93.01
2022-10-25T20:21:50.375Z,92.93
2022-10-25T20:24:16.869Z,93.25
2022-10-25T20:26:44.800Z,93.26
2022-10-25T20:29:20.323Z,93.08
2022-10-25T20:31:48.680Z,93.48
2022-10-25T20:34:15.995Z,93.75
2022-10-25T20:36:42.550Z,93.32
2022-10-25T20:39:10.919Z,93.02
2022-10-25T20:41:37.472Z,92.87
2022-10-25T20:44:05.234Z,93.60
2022-10-25T20:46:33.192Z,93.42
2022-10-25T20:49:00.567Z,93.30
2022-10-25T20:51:27.971Z,93.20
2022-10-25T20:53:54.558Z,93.11
2022-10-25T20:56:22.153Z,93.40
2022-10-25T20:58:49.389Z,93.47
2022-10-25T21:01:16.010Z,93.51
2022-10-25T21:03:42.754Z,93.39
2022-10-25T21:06:14.199Z,93.74
2022-10-25T21:08:41.004Z,93.24
2022-10-25T21:11:09.999Z,93.58
2022-10-25T21:13:37.339Z,93.37
2022-10-25T21:16:07.875Z,93.61
2022-10-25T21:18:35.998Z,93.55
2022-10-25T21:21:04.892Z,93.27
2022-10-25T21:23:32.119Z,93.79
2022-10-25T21:26:04.156Z,93.44
2022-10-25T21:28:35.891Z,93.83
2022-10-25T21:31:13.793Z,93.88
2022-10-25T21:33:49.487Z,94.17
2022-10-25T21:36:19.267Z,93.83
2022-10-25T21:38:45.804Z,94.00
2022-10-25T21:41:23.299Z,94.15
2022-10-25T21:43:51.198Z,93.80
2022-10-25T21:46:19.441Z,94.35
2022-10-25T21:48:47.965Z,94.40
2022-10-25T21:51:15.060Z,94.55
2022-10-25T21:53:41.661Z,94.30
2022-10-25T21:56:13.653Z,94.27
2022-10-25T21:58:42.606Z,94.15
2022-10-25T22:01:12.572Z,94.06
2022-10-25T22:03:39.738Z,94.03
2022-10-25T22:06:07.881Z,94.07
2022-10-25T22:08:34.508Z,93.77
2022-10-25T22:11:04.787Z,94.09
2022-10-25T22:13:31.351Z,93.85
2022-10-25T22:16:04.578Z,93.83
2022-10-25T22:18:31.577Z,94.32
2022-10-25T22:21:00.968Z,93.82
2022-10-25T22:23:30.413Z,93.87
2022-10-25T22:26:07.357Z,94.26
2022-10-25T22:28:36.828Z,94.70
2022-10-25T22:31:17.428Z,94.67
2022-10-25T22:33:44.967Z,94.72
2022-10-25T22:36:15.187Z,94.29
2022-10-25T22:38:42.545Z,94.95
2022-10-25T22:41:20.069Z,94.58
2022-10-25T22:43:47.944Z,94.84
2022-10-25T22:46:24.902Z,94.97
2022-10-25T22:48:53.755Z,94.75
2022-10-25T22:51:20.766Z,94.61
2022-10-25T22:53:47.629Z,94.67
2022-10-25T22:56:16.942Z,94.66
2022-10-25T22:58:49.221Z,94.70
2022-10-25T23:01:18.945Z,94.72
2022-10-25T23:03:52.259Z,94.50
2022-10-25T23:06:21.870Z,94.14
2022-10-25T23:08:48.633Z,94.13
2022-10-25T23:11:18.856Z,94.37
2022-10-25T23:13:46.287Z,94.07
2022-10-25T23:16:15.284Z,94.26
2022-10-25T23:18:42.511Z,94.25
2022-10-25T23:21:16.056Z,94.01
2022-10-25T23:23:43.136Z,94.10
2022-10-25T23:26:15.792Z,93.64
2022-10-25T23:28:42.471Z,93.96
2022-10-25T23:31:11.189Z,93.79
2022-10-25T23:33:38.342Z,93.73
2022-10-25T23:36:10.577Z,94.47
2022-10-25T23:38:37.621Z,94.12
2022-10-25T23:41:04.964Z,94.24
2022-10-25T23:43:31.687Z,94.34
2022-10-25T23:45:58.310Z,94.05
2022-10-25T23:48:25.099Z,93.85
2022-10-25T23:51:05.733Z,94.00
2022-10-25T23:53:32.218Z,93.77
2022-10-25T23:56:00.057Z,94.06
2022-10-25T23:58:28.713Z,94.23
